CheckWX is a tool to help pilots better visualize weather data.  It is not intended as a substitute for an official pre-flight weather briefing.

12:44:56 UTC

KALW METAR
Walla Walla Regional Airport
Walla Walla, Washington, USA
Current

44 mins ago

KALW 181201Z AUTO 20008KT 10SM OVC010 M03/M06 A3031 RMK AO2 CIG 007V012 T10281056
Observed
Feb-18 @ 12:01 UTC
Wind
  • 200° at 8 KTS
Visibility
10 SM
Flight Rules
MVFR
Cloud Levels
  • Overcast at 1,000' AGL
Temperature
-3°C / 27°F
Dewpoint
-6°C / 21°F
Humidity
80%
Altimeter
30.31" Hg
Pressure
1026.42 hPa
Previous

52 mins ago

KALW 181153Z AUTO 20006KT 10SM OVC008 M03/M06 A3031 RMK AO2 CIG 007V011 SLP279 60000 70007 T10281056 10000 21039 51013
Observed
Feb-18 @ 11:53 UTC
Wind
  • 200° at 6 KTS
Visibility
10 SM
Flight Rules
IFR
Cloud Levels
  • Overcast at 800' AGL
Temperature
-3°C / 27°F
Dewpoint
-6°C / 21°F
Humidity
80%
Altimeter
30.31" Hg
Pressure
1027.9 hPa
Previous

2 hours ago

KALW 181053Z AUTO 18008KT 10SM BKN006 OVC012 M03/M05 A3030 RMK AO2 SLP273 T10281050
Observed
Feb-18 @ 10:53 UTC
Wind
  • 180° at 8 KTS
Visibility
10 SM
Flight Rules
IFR
Cloud Levels
  • Broken at 600' AGL
  • Overcast at 1,200' AGL
Temperature
-3°C / 27°F
Dewpoint
-5°C / 23°F
Humidity
86%
Altimeter
30.3" Hg
Pressure
1027.3 hPa